createdAt,value
2022-07-25T00:00:30.389Z,0.00
2022-07-25T00:01:30.557Z,0.00
2022-07-25T00:02:30.432Z,0.00
2022-07-25T00:03:30.341Z,0.00
2022-07-25T00:04:30.396Z,0.00
2022-07-25T00:05:34.453Z,0.00
2022-07-25T00:06:31.297Z,0.00
2022-07-25T00:07:30.278Z,0.00
2022-07-25T00:08:30.259Z,0.00
2022-07-25T00:09:30.301Z,0.00
2022-07-25T00:10:30.278Z,0.00
2022-07-25T00:11:30.231Z,0.00
2022-07-25T00:12:30.204Z,0.00
2022-07-25T00:13:30.260Z,0.00
2022-07-25T00:14:30.181Z,0.00
2022-07-25T00:15:30.190Z,0.00
2022-07-25T00:16:30.220Z,0.00
2022-07-25T00:17:30.149Z,0.00
2022-07-25T00:18:30.143Z,0.00
2022-07-25T00:19:30.121Z,0.00
2022-07-25T00:20:30.100Z,0.00
2022-07-25T00:21:30.101Z,0.00
2022-07-25T00:22:30.112Z,0.00
2022-07-25T00:23:30.080Z,0.00
2022-07-25T00:24:30.330Z,0.00
2022-07-25T00:25:30.051Z,0.00
2022-07-25T00:26:30.026Z,0.00
2022-07-25T00:27:30.011Z,0.00
2022-07-25T00:28:29.990Z,0.00
2022-07-25T00:29:29.991Z,0.00
2022-07-25T00:30:29.981Z,0.00
2022-07-25T00:31:30.060Z,0.00
2022-07-25T00:32:29.940Z,0.00
2022-07-25T00:33:29.954Z,0.00
2022-07-25T00:34:29.920Z,0.00
2022-07-25T00:35:30.070Z,0.00
2022-07-25T00:36:29.911Z,0.00
2022-07-25T00:37:29.899Z,0.00
2022-07-25T00:38:29.863Z,0.00
2022-07-25T00:39:29.871Z,0.00
2022-07-25T00:40:29.860Z,0.00
2022-07-25T00:41:29.842Z,0.00
2022-07-25T00:42:29.831Z,0.00
2022-07-25T00:43:29.813Z,0.00
2022-07-25T00:44:29.791Z,0.00
2022-07-25T00:45:29.794Z,0.00
2022-07-25T00:46:29.970Z,0.00
2022-07-25T00:47:29.764Z,0.00
2022-07-25T00:48:29.803Z,0.00
2022-07-25T00:49:29.742Z,0.00
2022-07-25T00:50:29.723Z,0.00
2022-07-25T00:51:29.703Z,0.00
2022-07-25T00:52:29.686Z,0.00
2022-07-25T00:53:29.685Z,0.00
2022-07-25T00:54:29.673Z,0.00
2022-07-25T00:55:29.653Z,0.00
2022-07-25T00:56:29.634Z,0.00
2022-07-25T00:57:29.757Z,0.00
2022-07-25T00:58:29.646Z,0.00
2022-07-25T00:59:29.595Z,0.00
2022-07-25T01:00:29.584Z,0.00
2022-07-25T01:01:29.618Z,0.00
2022-07-25T01:02:29.627Z,0.00
2022-07-25T01:03:29.566Z,0.00
2022-07-25T01:04:29.547Z,0.00
2022-07-25T01:05:29.546Z,0.00
2022-07-25T01:06:29.516Z,0.00
2022-07-25T01:07:29.497Z,0.00
2022-07-25T01:08:29.826Z,0.00
2022-07-25T01:09:29.502Z,0.00
2022-07-25T01:10:29.458Z,0.00
2022-07-25T01:11:29.447Z,0.00
2022-07-25T01:12:29.427Z,0.00
2022-07-25T01:13:29.428Z,0.00
2022-07-25T01:14:29.409Z,0.00
2022-07-25T01:15:29.490Z,0.00
2022-07-25T01:16:29.473Z,0.00
2022-07-25T01:17:29.369Z,0.00
2022-07-25T01:18:29.362Z,0.00
2022-07-25T01:19:29.411Z,0.00
2022-07-25T01:20:29.329Z,0.00
2022-07-25T01:21:29.326Z,0.00
2022-07-25T01:22:29.298Z,0.00
2022-07-25T01:23:29.294Z,0.00
2022-07-25T01:24:29.280Z,0.00
2022-07-25T01:25:29.271Z,0.00
2022-07-25T01:26:29.248Z,0.00
2022-07-25T01:27:29.240Z,0.00
2022-07-25T01:28:29.220Z,0.00
2022-07-25T01:29:29.221Z,0.00
2022-07-25T01:30:29.341Z,0.00
2022-07-25T01:31:29.248Z,0.00
2022-07-25T01:32:29.169Z,0.00
2022-07-25T01:33:29.171Z,0.00
2022-07-25T01:34:29.140Z,0.00
2022-07-25T01:35:29.133Z,0.00
2022-07-25T01:36:29.122Z,0.00
2022-07-25T01:37:29.120Z,0.00
2022-07-25T01:38:29.100Z,0.00
2022-07-25T01:39:29.090Z,0.00
2022-07-25T01:40:29.061Z,0.00
2022-07-25T01:41:29.249Z,0.00
2022-07-25T01:42:29.042Z,0.00
2022-07-25T01:43:29.047Z,0.00
2022-07-25T01:44:29.012Z,0.00
2022-07-25T01:45:29.010Z,0.00
2022-07-25T01:46:29.070Z,0.00
2022-07-25T01:47:28.984Z,0.00
2022-07-25T01:48:29.015Z,0.00
2022-07-25T01:49:28.957Z,0.00
2022-07-25T01:50:28.942Z,0.00
2022-07-25T01:51:28.934Z,0.00
2022-07-25T01:52:29.281Z,0.00
2022-07-25T01:53:28.902Z,0.00
2022-07-25T01:54:28.887Z,0.00
2022-07-25T01:55:29.347Z,0.00
2022-07-25T01:56:28.855Z,0.00
2022-07-25T01:57:31.120Z,0.00
2022-07-25T01:58:28.833Z,0.00
2022-07-25T01:59:28.825Z,0.00
2022-07-25T02:00:28.817Z,0.00
2022-07-25T02:01:28.879Z,0.00
2022-07-25T02:02:28.785Z,0.00
2022-07-25T02:03:29.284Z,0.00
2022-07-25T02:04:28.804Z,0.00
2022-07-25T02:05:28.745Z,0.00
2022-07-25T02:06:28.727Z,0.00
2022-07-25T02:07:28.725Z,0.00
2022-07-25T02:08:28.727Z,0.00
2022-07-25T02:09:28.696Z,0.00
2022-07-25T02:10:28.689Z,0.00
2022-07-25T02:11:28.667Z,0.00
2022-07-25T02:12:28.647Z,0.00
2022-07-25T02:13:28.637Z,0.00
2022-07-25T02:14:28.946Z,0.00
2022-07-25T02:15:28.621Z,0.00
2022-07-25T02:16:28.702Z,0.00
2022-07-25T02:17:28.679Z,0.00
2022-07-25T02:18:28.578Z,0.00
2022-07-25T02:19:28.580Z,0.00
2022-07-25T02:20:28.558Z,0.00
2022-07-25T02:21:28.551Z,0.00
2022-07-25T02:22:28.529Z,0.00
2022-07-25T02:23:28.517Z,0.00
2022-07-25T02:24:28.498Z,0.00
2022-07-25T02:25:28.559Z,0.00
2022-07-25T02:26:28.502Z,0.00
2022-07-25T02:27:28.458Z,0.00
2022-07-25T02:28:28.451Z,0.00
2022-07-25T02:29:28.438Z,0.00
2022-07-25T02:30:28.513Z,0.00
2022-07-25T02:31:28.409Z,0.00
2022-07-25T02:32:28.406Z,0.00
2022-07-25T02:33:28.393Z,0.00
2022-07-25T02:34:28.372Z,0.00
2022-07-25T02:35:28.360Z,0.00
2022-07-25T02:36:28.500Z,0.00
2022-07-25T02:37:28.339Z,0.00
2022-07-25T02:38:28.320Z,0.00
2022-07-25T02:39:28.322Z,0.00
2022-07-25T02:40:28.291Z,0.00
2022-07-25T02:41:28.289Z,0.00
2022-07-25T02:42:28.261Z,0.00
2022-07-25T02:43:28.264Z,0.00
2022-07-25T02:44:28.232Z,0.00
2022-07-25T02:45:28.251Z,0.00
2022-07-25T02:46:28.273Z,0.00
2022-07-25T02:47:28.309Z,0.00
2022-07-25T02:48:28.253Z,0.00
2022-07-25T02:49:28.184Z,0.00
2022-07-25T02:50:28.161Z,0.00
2022-07-25T02:51:28.184Z,0.00
2022-07-25T02:52:28.132Z,0.00
2022-07-25T02:53:54.384Z,0.00
2022-07-25T02:54:29.106Z,0.00
2022-07-25T02:55:28.102Z,0.00
2022-07-25T02:56:30.084Z,0.00
2022-07-25T02:57:28.074Z,0.00
2022-07-25T02:58:28.143Z,0.00
2022-07-25T02:59:32.127Z,0.00
2022-07-25T03:00:28.036Z,0.00
2022-07-25T03:01:28.117Z,0.00
2022-07-25T03:02:28.012Z,0.00
2022-07-25T03:03:27.999Z,0.00
2022-07-25T03:04:28.055Z,0.00
2022-07-25T03:05:27.976Z,0.00
2022-07-25T03:06:27.955Z,0.00
2022-07-25T03:07:27.953Z,0.00
2022-07-25T03:08:27.926Z,0.00
2022-07-25T03:09:28.069Z,0.00
2022-07-25T03:10:27.925Z,0.00
2022-07-25T03:11:27.892Z,0.00
2022-07-25T03:12:27.877Z,0.00
2022-07-25T03:13:27.868Z,0.00
2022-07-25T03:14:27.866Z,0.00
2022-07-25T03:15:27.846Z,0.00
2022-07-25T03:16:27.848Z,0.00
2022-07-25T03:17:27.817Z,0.00
2022-07-25T03:18:27.814Z,0.00
2022-07-25T03:19:27.786Z,0.00
2022-07-25T03:20:28.068Z,0.00
2022-07-25T03:21:27.758Z,0.00
2022-07-25T03:22:27.748Z,0.00
2022-07-25T03:23:27.737Z,0.00
2022-07-25T03:24:27.728Z,0.00
2022-07-25T03:25:27.708Z,0.00
2022-07-25T03:26:27.711Z,0.00
2022-07-25T03:27:27.687Z,5.62
2022-07-25T03:28:27.679Z,5.62
2022-07-25T03:29:27.681Z,5.62
2022-07-25T03:30:27.661Z,5.62
2022-07-25T03:31:27.848Z,5.62
2022-07-25T03:32:27.628Z,5.62
2022-07-25T03:33:27.619Z,5.62
2022-07-25T03:34:27.590Z,11.25
2022-07-25T03:35:27.578Z,11.25
2022-07-25T03:36:27.569Z,11.25
2022-07-25T03:37:27.559Z,11.25
2022-07-25T03:38:27.550Z,11.25
2022-07-25T03:39:27.538Z,16.88
2022-07-25T03:40:27.519Z,16.88
2022-07-25T03:41:28.017Z,16.88
2022-07-25T03:42:31.031Z,16.88
2022-07-25T03:43:28.481Z,22.50
2022-07-25T03:44:27.472Z,22.50
2022-07-25T03:45:27.504Z,22.50
2022-07-25T03:46:27.552Z,28.12
2022-07-25T03:47:27.436Z,28.12
2022-07-25T03:48:27.471Z,28.12
2022-07-25T03:49:27.407Z,33.75
2022-07-25T03:50:28.341Z,33.75
2022-07-25T03:51:27.372Z,33.75
2022-07-25T03:52:27.364Z,39.38
2022-07-25T03:53:27.671Z,39.38
2022-07-25T03:54:27.340Z,39.38
2022-07-25T03:55:27.322Z,45.00
2022-07-25T03:56:27.312Z,45.00
2022-07-25T03:57:27.292Z,45.00
2022-07-25T03:58:27.292Z,50.62
2022-07-25T03:59:27.272Z,50.62
2022-07-25T04:00:27.277Z,50.62
2022-07-25T04:01:27.315Z,56.25
2022-07-25T04:02:27.291Z,56.25
2022-07-25T04:03:27.236Z,56.25
2022-07-25T04:04:27.443Z,61.88
2022-07-25T04:05:27.193Z,61.88
2022-07-25T04:06:27.175Z,61.88
2022-07-25T04:07:27.174Z,67.50
2022-07-25T04:08:27.153Z,67.50
2022-07-25T04:09:27.134Z,67.50
2022-07-25T04:10:28.150Z,73.12
2022-07-25T04:11:27.124Z,73.12
2022-07-25T04:12:27.118Z,73.12
2022-07-25T04:13:27.086Z,78.75
2022-07-25T04:14:27.106Z,78.75
2022-07-25T04:15:27.317Z,78.75
2022-07-25T04:16:27.863Z,84.38
2022-07-25T04:17:27.035Z,84.38
2022-07-25T04:18:28.735Z,84.38
2022-07-25T04:19:28.877Z,90.00
2022-07-25T04:20:27.007Z,90.00
2022-07-25T04:21:26.985Z,90.00
2022-07-25T04:22:27.002Z,95.62
2022-07-25T04:23:26.955Z,95.62
2022-07-25T04:24:26.966Z,95.62
2022-07-25T04:25:26.935Z,95.62
2022-07-25T04:26:26.998Z,101.25
2022-07-25T04:27:26.909Z,101.25
2022-07-25T04:28:26.926Z,101.25
2022-07-25T04:29:26.880Z,106.88
2022-07-25T04:30:26.891Z,106.88
2022-07-25T04:31:26.942Z,106.88
2022-07-25T04:32:26.891Z,112.50
2022-07-25T04:33:26.829Z,112.50
2022-07-25T04:34:26.819Z,112.50
2022-07-25T04:35:26.814Z,118.12
2022-07-25T04:36:26.803Z,118.12
2022-07-25T04:37:26.968Z,118.12
2022-07-25T04:38:26.780Z,123.75
2022-07-25T04:39:26.748Z,123.75
2022-07-25T04:40:26.780Z,123.75
2022-07-25T04:41:26.731Z,129.38
2022-07-25T04:42:26.719Z,129.38
2022-07-25T04:43:26.716Z,129.38
2022-07-25T04:44:26.698Z,135.00
2022-07-25T04:45:26.711Z,135.00
2022-07-25T04:46:26.689Z,135.00
2022-07-25T04:47:26.682Z,135.00
2022-07-25T04:48:26.871Z,140.62
2022-07-25T04:49:26.629Z,140.62
2022-07-25T04:50:26.620Z,140.62
2022-07-25T04:51:26.601Z,146.25
2022-07-25T04:52:26.592Z,146.25
2022-07-25T04:53:26.563Z,146.25
2022-07-25T04:54:26.560Z,151.88
2022-07-25T04:55:26.547Z,151.88
2022-07-25T04:56:26.575Z,151.88
2022-07-25T04:57:26.512Z,151.88
2022-07-25T04:58:26.512Z,157.50
2022-07-25T04:59:26.674Z,157.50
2022-07-25T05:00:26.482Z,157.50
2022-07-25T05:01:26.533Z,157.50
2022-07-25T05:02:26.491Z,163.12
2022-07-25T05:03:26.455Z,163.12
2022-07-25T05:04:26.432Z,163.12
2022-07-25T05:05:26.412Z,163.12
2022-07-25T05:06:26.426Z,163.12
2022-07-25T05:07:26.391Z,168.75
2022-07-25T05:08:26.383Z,168.75
2022-07-25T05:09:26.367Z,168.75
2022-07-25T05:10:26.447Z,168.75
2022-07-25T05:11:26.343Z,174.38
2022-07-25T05:12:26.367Z,174.38
2022-07-25T05:13:26.313Z,174.38
2022-07-25T05:14:26.313Z,180.00
2022-07-25T05:15:26.286Z,180.00
2022-07-25T05:16:26.325Z,180.00
2022-07-25T05:17:26.256Z,185.62
2022-07-25T05:18:26.276Z,185.62
2022-07-25T05:19:26.235Z,185.62
2022-07-25T05:20:26.226Z,185.62
2022-07-25T05:21:26.485Z,185.62
2022-07-25T05:22:28.400Z,185.62
2022-07-25T05:23:26.197Z,185.62
2022-07-25T05:24:26.194Z,185.62
2022-07-25T05:25:26.155Z,185.62
2022-07-25T05:26:26.155Z,185.62
2022-07-25T05:27:26.147Z,191.25
2022-07-25T05:28:26.137Z,191.25
2022-07-25T05:29:26.114Z,191.25
2022-07-25T05:30:26.108Z,191.25
2022-07-25T05:31:26.148Z,191.25
2022-07-25T05:32:26.387Z,196.88
2022-07-25T05:33:26.066Z,202.50
2022-07-25T05:34:26.050Z,202.50
2022-07-25T05:35:26.029Z,202.50
2022-07-25T05:36:26.030Z,208.12
2022-07-25T05:37:26.011Z,208.12
2022-07-25T05:38:26.013Z,213.75
2022-07-25T05:39:25.984Z,213.75
2022-07-25T05:40:25.976Z,213.75
2022-07-25T05:41:25.951Z,219.38
2022-07-25T05:42:25.959Z,219.38
2022-07-25T05:43:26.029Z,219.38
2022-07-25T05:44:25.929Z,219.38
2022-07-25T05:45:25.911Z,225.00
2022-07-25T05:46:25.948Z,225.00
2022-07-25T05:47:25.910Z,225.00
2022-07-25T05:48:25.952Z,225.00
2022-07-25T05:49:25.854Z,230.62
2022-07-25T05:50:25.842Z,236.25
2022-07-25T05:51:27.670Z,241.88
2022-07-25T05:52:25.821Z,247.50
2022-07-25T05:53:25.808Z,253.12
2022-07-25T05:54:25.846Z,258.75
2022-07-25T05:55:25.782Z,264.38
2022-07-25T05:56:25.764Z,264.38
2022-07-25T05:57:25.752Z,258.75
2022-07-25T05:58:29.722Z,253.12
2022-07-25T05:59:25.728Z,253.12
2022-07-25T06:00:25.725Z,253.12
2022-07-25T06:01:25.753Z,258.75
2022-07-25T06:02:25.845Z,264.38
2022-07-25T06:03:25.763Z,270.00
2022-07-25T06:04:27.388Z,275.62
2022-07-25T06:05:25.805Z,275.62
2022-07-25T06:06:25.654Z,275.62
2022-07-25T06:07:25.626Z,275.62
2022-07-25T06:08:25.616Z,275.62
2022-07-25T06:09:25.603Z,281.25
2022-07-25T06:10:25.597Z,281.25
2022-07-25T06:11:25.599Z,281.25
2022-07-25T06:12:25.567Z,281.25
2022-07-25T06:13:25.557Z,275.62
2022-07-25T06:14:25.550Z,270.00
2022-07-25T06:15:27.061Z,264.38
2022-07-25T06:16:25.697Z,258.75
2022-07-25T06:17:30.492Z,258.75
2022-07-25T06:18:26.501Z,264.38
2022-07-25T06:19:25.486Z,264.38
2022-07-25T06:20:25.468Z,270.00
2022-07-25T06:21:25.447Z,275.62
2022-07-25T06:22:25.437Z,281.25
2022-07-25T06:23:27.571Z,281.25
2022-07-25T06:24:25.408Z,286.88
2022-07-25T06:25:25.413Z,292.50
2022-07-25T06:26:25.398Z,292.50
2022-07-25T06:27:29.256Z,309.38
2022-07-25T06:28:25.359Z,320.62
2022-07-25T06:29:25.349Z,331.88
2022-07-25T06:30:25.376Z,343.12
2022-07-25T06:31:25.379Z,354.38
2022-07-25T06:32:25.299Z,371.25
2022-07-25T06:33:25.294Z,382.50
2022-07-25T06:34:28.647Z,399.38
2022-07-25T06:35:25.262Z,410.62
2022-07-25T06:36:32.045Z,421.88
2022-07-25T06:37:26.302Z,433.12
2022-07-25T06:38:25.241Z,444.38
2022-07-25T06:39:25.221Z,455.62
2022-07-25T06:40:25.314Z,472.50
2022-07-25T06:41:25.193Z,483.75
2022-07-25T06:42:25.173Z,511.88
2022-07-25T06:43:25.162Z,540.00
2022-07-25T06:44:25.154Z,568.12
2022-07-25T06:45:25.510Z,590.62
2022-07-25T06:46:25.158Z,607.50
2022-07-25T06:47:25.122Z,618.75
2022-07-25T06:48:25.232Z,630.00
2022-07-25T06:49:25.094Z,635.62
2022-07-25T06:50:25.114Z,646.88
2022-07-25T06:51:25.065Z,663.75
2022-07-25T06:52:25.050Z,663.75
2022-07-25T06:53:25.035Z,658.12
2022-07-25T06:54:25.017Z,646.88
2022-07-25T06:55:25.018Z,641.25
2022-07-25T06:56:24.994Z,618.75
2022-07-25T06:57:24.976Z,579.38
2022-07-25T06:58:25.926Z,528.75
2022-07-25T06:59:25.135Z,489.38
2022-07-25T07:00:25.031Z,472.50
2022-07-25T07:01:25.025Z,461.25
2022-07-25T07:02:24.927Z,461.25
2022-07-25T07:03:25.003Z,466.88
2022-07-25T07:04:24.887Z,466.88
2022-07-25T07:05:24.886Z,472.50
2022-07-25T07:06:25.118Z,461.25
2022-07-25T07:07:24.866Z,478.12
2022-07-25T07:08:24.863Z,489.38
2022-07-25T07:09:24.828Z,489.38
2022-07-25T07:10:24.978Z,511.88
2022-07-25T07:11:24.813Z,556.88
2022-07-25T07:12:24.790Z,601.88
2022-07-25T07:13:24.830Z,641.25
2022-07-25T07:14:24.769Z,658.12
2022-07-25T07:15:24.776Z,691.88
2022-07-25T07:16:24.819Z,708.75
2022-07-25T07:17:24.733Z,720.00
2022-07-25T07:18:24.729Z,720.00
2022-07-25T07:19:24.711Z,714.38
2022-07-25T07:20:24.693Z,708.75
2022-07-25T07:21:25.032Z,714.38
2022-07-25T07:22:24.675Z,714.38
2022-07-25T07:23:24.906Z,703.12
2022-07-25T07:24:24.886Z,658.12
2022-07-25T07:25:24.622Z,630.00
2022-07-25T07:26:24.626Z,607.50
2022-07-25T07:27:24.614Z,585.00
2022-07-25T07:28:24.610Z,562.50
2022-07-25T07:29:24.584Z,534.38
2022-07-25T07:30:37.584Z,511.88
2022-07-25T07:31:25.666Z,500.62
2022-07-25T07:32:24.604Z,511.88
2022-07-25T07:33:24.545Z,500.62
2022-07-25T07:34:24.526Z,511.88
2022-07-25T07:35:24.509Z,511.88
2022-07-25T07:36:24.495Z,523.12
2022-07-25T07:37:24.497Z,528.75
2022-07-25T07:38:24.468Z,523.12
2022-07-25T07:39:24.477Z,528.75
2022-07-25T07:40:24.447Z,540.00
2022-07-25T07:41:24.438Z,556.88
2022-07-25T07:42:24.609Z,562.50
2022-07-25T07:43:29.699Z,590.62
2022-07-25T07:44:25.387Z,613.12
2022-07-25T07:45:24.389Z,641.25
2022-07-25T07:46:24.414Z,663.75
2022-07-25T07:47:24.440Z,669.38
2022-07-25T07:48:24.352Z,686.25
2022-07-25T07:49:24.454Z,691.88
2022-07-25T07:50:24.330Z,708.75
2022-07-25T07:51:24.313Z,742.50
2022-07-25T07:52:24.299Z,753.75
2022-07-25T07:53:24.621Z,753.75
2022-07-25T07:54:24.282Z,736.88
2022-07-25T07:55:24.260Z,725.62
2022-07-25T07:56:24.250Z,725.62
2022-07-25T07:57:24.233Z,725.62
2022-07-25T07:58:24.236Z,731.25
2022-07-25T07:59:24.207Z,753.75
2022-07-25T08:00:24.191Z,787.50
2022-07-25T08:01:24.254Z,815.62
2022-07-25T08:02:24.219Z,832.50
2022-07-25T08:03:24.234Z,810.00
2022-07-25T08:04:24.238Z,781.88
2022-07-25T08:05:24.213Z,759.38
2022-07-25T08:06:24.114Z,731.25
2022-07-25T08:07:24.114Z,708.75
2022-07-25T08:08:27.791Z,686.25
2022-07-25T08:09:25.085Z,686.25
2022-07-25T08:10:24.072Z,680.62
2022-07-25T08:11:24.068Z,686.25
2022-07-25T08:12:24.046Z,686.25
2022-07-25T08:13:24.041Z,686.25
2022-07-25T08:14:24.026Z,691.88
2022-07-25T08:15:24.119Z,720.00
2022-07-25T08:16:24.066Z,759.38
2022-07-25T08:17:28.472Z,781.88
2022-07-25T08:18:23.968Z,804.38
2022-07-25T08:19:23.958Z,810.00
2022-07-25T08:20:39.488Z,810.00
2022-07-25T08:21:24.939Z,815.62
2022-07-25T08:22:23.921Z,832.50
2022-07-25T08:23:23.909Z,838.12
2022-07-25T08:24:23.898Z,838.12
2022-07-25T08:25:23.878Z,838.12
2022-07-25T08:26:24.131Z,826.88
2022-07-25T08:27:23.861Z,798.75
2022-07-25T08:28:23.852Z,781.88
2022-07-25T08:29:28.011Z,787.50
2022-07-25T08:30:23.824Z,770.62
2022-07-25T08:31:23.883Z,736.88
2022-07-25T08:32:23.792Z,691.88
2022-07-25T08:33:23.795Z,652.50
2022-07-25T08:34:23.772Z,624.38
2022-07-25T08:35:23.771Z,590.62
2022-07-25T08:36:23.753Z,562.50
2022-07-25T08:37:24.123Z,534.38
2022-07-25T08:38:23.724Z,511.88
2022-07-25T08:39:23.715Z,489.38
2022-07-25T08:40:23.695Z,478.12
2022-07-25T08:41:24.727Z,478.12
2022-07-25T08:42:23.664Z,483.75
2022-07-25T08:43:23.666Z,534.38
2022-07-25T08:44:23.649Z,579.38
2022-07-25T08:45:23.628Z,596.25
2022-07-25T08:46:23.667Z,618.75
2022-07-25T08:47:23.649Z,669.38
2022-07-25T08:48:23.705Z,736.88
2022-07-25T08:49:23.598Z,798.75
2022-07-25T08:50:23.568Z,860.62
2022-07-25T08:51:23.557Z,916.88
2022-07-25T08:52:23.548Z,939.38
2022-07-25T08:53:38.918Z,883.12
2022-07-25T08:54:24.526Z,888.75
2022-07-25T08:55:23.507Z,883.12
2022-07-25T08:56:23.517Z,855.00
2022-07-25T08:57:23.479Z,826.88
2022-07-25T08:58:23.471Z,826.88
2022-07-25T08:59:23.582Z,843.75
2022-07-25T09:00:23.450Z,871.88
2022-07-25T09:01:23.500Z,832.50
2022-07-25T09:02:23.565Z,860.62
2022-07-25T09:03:23.441Z,916.88
2022-07-25T09:04:23.407Z,928.12
2022-07-25T09:05:23.391Z,984.38
2022-07-25T09:06:23.371Z,1057.50
2022-07-25T09:07:23.361Z,1141.88
2022-07-25T09:08:23.341Z,1209.38
2022-07-25T09:09:23.369Z,1226.25
2022-07-25T09:10:23.533Z,1203.75
2022-07-25T09:11:23.303Z,1164.38
2022-07-25T09:12:26.038Z,1153.12
2022-07-25T09:13:23.293Z,1153.12
2022-07-25T09:14:23.275Z,1102.50
2022-07-25T09:15:23.265Z,1029.38
2022-07-25T09:16:23.306Z,978.75
2022-07-25T09:17:23.779Z,961.88
2022-07-25T09:18:23.229Z,945.00
2022-07-25T09:19:23.228Z,950.62
2022-07-25T09:20:23.195Z,956.25
2022-07-25T09:21:23.596Z,1001.25
2022-07-25T09:22:23.176Z,1063.12
2022-07-25T09:23:23.179Z,1136.25
2022-07-25T09:24:23.166Z,1170.00
2022-07-25T09:25:23.136Z,1170.00
2022-07-25T09:26:23.143Z,1192.50
2022-07-25T09:27:23.110Z,1243.12
2022-07-25T09:28:23.096Z,1293.75
2022-07-25T09:29:23.085Z,1350.00
2022-07-25T09:30:23.068Z,1383.75
2022-07-25T09:31:23.093Z,1389.38
2022-07-25T09:32:23.238Z,1378.12
2022-07-25T09:33:23.039Z,1372.50
2022-07-25T09:34:25.606Z,1389.38
2022-07-25T09:35:23.008Z,1406.25
2022-07-25T09:36:23.005Z,1383.75
2022-07-25T09:37:22.989Z,1383.75
2022-07-25T09:38:22.971Z,1389.38
2022-07-25T09:39:23.032Z,1389.38
2022-07-25T09:40:22.960Z,1434.38
2022-07-25T09:41:22.945Z,1485.00
2022-07-25T09:42:22.926Z,1479.38
2022-07-25T09:43:23.011Z,1501.88
2022-07-25T09:44:22.909Z,1496.25
2022-07-25T09:45:22.899Z,1524.38
2022-07-25T09:46:22.945Z,1524.38
2022-07-25T09:47:22.871Z,1507.50
2022-07-25T09:48:22.853Z,1496.25
2022-07-25T09:49:22.841Z,1485.00
2022-07-25T09:50:22.833Z,1451.25
2022-07-25T09:51:22.828Z,1406.25
2022-07-25T09:52:22.801Z,1372.50
2022-07-25T09:53:22.807Z,1338.75
2022-07-25T09:54:22.807Z,1338.75
2022-07-25T09:55:22.765Z,1350.00
2022-07-25T09:56:22.759Z,1383.75
2022-07-25T09:57:22.766Z,1400.62
2022-07-25T09:58:22.737Z,1479.38
2022-07-25T09:59:22.727Z,1597.50
2022-07-25T10:00:22.722Z,1721.25
2022-07-25T10:01:22.763Z,1777.50
2022-07-25T10:02:22.789Z,1721.25
2022-07-25T10:03:22.677Z,1653.75
2022-07-25T10:04:22.658Z,1440.00
2022-07-25T10:05:22.979Z,1344.38
2022-07-25T10:06:22.637Z,1327.50
2022-07-25T10:07:22.632Z,1299.38
2022-07-25T10:08:22.609Z,1265.62
2022-07-25T10:09:22.605Z,1260.00
2022-07-25T10:10:22.593Z,1276.88
2022-07-25T10:11:22.572Z,1237.50
2022-07-25T10:12:22.550Z,1192.50
2022-07-25T10:13:22.563Z,1136.25
2022-07-25T10:14:22.553Z,1051.88
2022-07-25T10:15:22.533Z,973.12
2022-07-25T10:16:22.841Z,933.75
2022-07-25T10:17:22.559Z,894.38
2022-07-25T10:18:22.482Z,849.38
2022-07-25T10:19:22.492Z,815.62
2022-07-25T10:20:22.465Z,804.38
2022-07-25T10:21:26.798Z,832.50
2022-07-25T10:22:40.012Z,894.38
2022-07-25T10:23:23.424Z,950.62
2022-07-25T10:24:22.405Z,1023.75
2022-07-25T10:25:22.415Z,1091.25
2022-07-25T10:26:22.388Z,1153.12
2022-07-25T10:27:22.484Z,1203.75
2022-07-25T10:28:22.376Z,1220.62
2022-07-25T10:29:22.355Z,1226.25
2022-07-25T10:30:22.338Z,1243.12
2022-07-25T10:31:22.456Z,1282.50
2022-07-25T10:32:22.306Z,1350.00
2022-07-25T10:33:22.303Z,1400.62
2022-07-25T10:34:22.316Z,1468.12
2022-07-25T10:35:22.288Z,1552.50
2022-07-25T10:36:22.279Z,1670.62
2022-07-25T10:37:22.258Z,1625.62
2022-07-25T10:38:22.338Z,1625.62
2022-07-25T10:39:22.235Z,1524.38
2022-07-25T10:40:22.218Z,1400.62
2022-07-25T10:41:22.210Z,1406.25
2022-07-25T10:42:22.200Z,1530.00
2022-07-25T10:43:22.190Z,1771.88
2022-07-25T10:44:22.199Z,2103.75
2022-07-25T10:45:22.162Z,1867.50
2022-07-25T10:46:22.219Z,1906.88
2022-07-25T10:47:22.131Z,1586.25
2022-07-25T10:48:22.120Z,1496.25
2022-07-25T10:49:31.091Z,1513.12
2022-07-25T10:50:40.421Z,1670.62
2022-07-25T10:51:23.081Z,1743.75
2022-07-25T10:52:22.063Z,2390.62
2022-07-25T10:53:22.053Z,3549.38
2022-07-25T10:54:22.051Z,3206.25
2022-07-25T10:55:22.046Z,2784.38
2022-07-25T10:56:22.024Z,2362.50
2022-07-25T10:57:22.014Z,2688.75
2022-07-25T10:58:21.995Z,2767.50
2022-07-25T10:59:21.996Z,3808.12
2022-07-25T11:00:22.255Z,3105.00
2022-07-25T11:01:22.032Z,1946.25
2022-07-25T11:02:21.969Z,4775.62
2022-07-25T11:03:21.946Z,4927.50
2022-07-25T11:04:21.926Z,4798.12
2022-07-25T11:05:21.918Z,4381.88
2022-07-25T11:06:21.897Z,4725.00
2022-07-25T11:07:21.906Z,5304.38
2022-07-25T11:08:22.763Z,4978.12
2022-07-25T11:09:26.934Z,5000.62
2022-07-25T11:10:23.171Z,5703.75
2022-07-25T11:11:21.848Z,4955.62
2022-07-25T11:12:21.842Z,2981.25
2022-07-25T11:13:21.853Z,2002.50
2022-07-25T11:14:21.817Z,1428.75
2022-07-25T11:15:21.809Z,1333.12
2022-07-25T11:16:21.816Z,1271.25
2022-07-25T11:17:21.789Z,1226.25
2022-07-25T11:18:21.760Z,1203.75
2022-07-25T11:19:21.751Z,1198.12
2022-07-25T11:20:21.743Z,1198.12
2022-07-25T11:21:21.862Z,1192.50
2022-07-25T11:22:21.711Z,1192.50
2022-07-25T11:23:21.725Z,1198.12
2022-07-25T11:24:21.693Z,1226.25
2022-07-25T11:25:21.701Z,1265.62
2022-07-25T11:26:21.672Z,1361.25
2022-07-25T11:27:21.658Z,1620.00
2022-07-25T11:28:21.649Z,2666.25
2022-07-25T11:29:21.635Z,3211.88
2022-07-25T11:30:21.615Z,2683.12
2022-07-25T11:31:21.644Z,2688.75
2022-07-25T11:32:21.671Z,2328.75
2022-07-25T11:33:21.592Z,2919.38
2022-07-25T11:34:21.588Z,1771.88
2022-07-25T11:35:21.567Z,1659.38
2022-07-25T11:36:21.588Z,1541.25
2022-07-25T11:37:21.556Z,1462.50
2022-07-25T11:38:21.537Z,1423.12
2022-07-25T11:39:21.533Z,1400.62
2022-07-25T11:40:21.496Z,1344.38
2022-07-25T11:41:21.488Z,1305.00
2022-07-25T11:42:21.489Z,1260.00
2022-07-25T11:43:21.548Z,1175.62
2022-07-25T11:44:21.448Z,1096.88
2022-07-25T11:45:21.455Z,1023.75
2022-07-25T11:46:21.488Z,939.38
2022-07-25T11:47:21.422Z,832.50
2022-07-25T11:48:21.419Z,748.12
2022-07-25T11:49:21.443Z,675.00
2022-07-25T11:50:21.381Z,601.88
2022-07-25T11:51:21.371Z,556.88
2022-07-25T11:52:21.362Z,556.88
2022-07-25T11:53:21.354Z,556.88
2022-07-25T11:54:21.701Z,540.00
2022-07-25T11:55:21.327Z,528.75
2022-07-25T11:57:22.292Z,495.00
2022-07-25T11:58:21.302Z,466.88
2022-07-25T11:59:21.274Z,450.00
2022-07-25T12:00:21.282Z,455.62
2022-07-25T12:01:21.253Z,466.88
2022-07-25T12:02:21.365Z,489.38
2022-07-25T12:03:21.373Z,500.62
2022-07-25T12:04:21.217Z,506.25
2022-07-25T12:05:21.284Z,534.38
2022-07-25T12:06:21.207Z,551.25
2022-07-25T12:07:21.175Z,573.75
2022-07-25T12:08:21.178Z,596.25
2022-07-25T12:09:21.162Z,618.75
2022-07-25T12:10:21.147Z,641.25
2022-07-25T12:11:21.126Z,669.38
2022-07-25T12:12:21.107Z,697.50
2022-07-25T12:13:21.098Z,731.25
2022-07-25T12:14:21.088Z,787.50
2022-07-25T12:15:21.071Z,894.38
2022-07-25T12:16:21.324Z,1091.25
2022-07-25T12:17:21.049Z,1462.50
2022-07-25T12:18:21.047Z,2143.12
2022-07-25T12:19:21.018Z,2621.25
2022-07-25T12:20:21.008Z,2070.00
2022-07-25T12:21:20.997Z,1597.50
2022-07-25T12:22:20.996Z,1411.88
2022-07-25T12:23:20.987Z,1434.38
2022-07-25T12:24:20.979Z,1490.62
2022-07-25T12:25:20.942Z,1479.38
2022-07-25T12:26:20.943Z,1715.62
2022-07-25T12:27:21.101Z,1659.38
2022-07-25T12:28:20.915Z,1513.12
2022-07-25T12:29:20.900Z,1563.75
2022-07-25T12:30:20.901Z,1642.50
2022-07-25T12:31:20.913Z,1805.62
2022-07-25T12:32:20.874Z,1890.00
2022-07-25T12:33:20.852Z,1811.25
2022-07-25T12:34:20.842Z,1642.50
2022-07-25T12:35:20.824Z,1608.75
2022-07-25T12:36:20.823Z,1681.88
2022-07-25T12:37:20.793Z,4415.62
2022-07-25T12:38:20.855Z,5439.38
2022-07-25T12:39:20.770Z,4921.88